createdAt,value
2022-07-26T00:00:10.998Z,8.85
2022-07-26T00:02:37.699Z,6.65
2022-07-26T00:05:05.799Z,3.40
2022-07-26T00:07:36.584Z,4.97
2022-07-26T00:10:06.106Z,8.90
2022-07-26T00:12:33.855Z,3.80
2022-07-26T00:15:00.613Z,6.05
2022-07-26T00:17:27.226Z,8.88
2022-07-26T00:19:53.787Z,7.60
2022-07-26T00:22:35.598Z,11.05
2022-07-26T00:25:08.695Z,11.43
2022-07-26T00:27:37.448Z,13.57
2022-07-26T00:30:06.418Z,13.07
2022-07-26T00:32:33.191Z,9.80
2022-07-26T00:34:59.799Z,11.55
2022-07-26T00:37:26.413Z,8.27
2022-07-26T00:39:52.991Z,5.50
2022-07-26T00:42:19.621Z,7.60
2022-07-26T00:44:47.339Z,6.78
2022-07-26T00:47:14.742Z,7.00
2022-07-26T00:49:42.167Z,7.07
2022-07-26T00:52:10.242Z,3.80
2022-07-26T00:54:38.481Z,7.05
2022-07-26T00:57:05.462Z,7.55
2022-07-26T00:59:32.305Z,5.10
2022-07-26T01:01:59.209Z,8.98
2022-07-26T01:04:26.018Z,5.15
2022-07-26T01:06:53.437Z,7.90
2022-07-26T01:09:20.287Z,7.80
2022-07-26T01:11:46.938Z,7.90
2022-07-26T01:14:13.578Z,6.40
2022-07-26T01:16:40.314Z,7.15
2022-07-26T01:19:06.930Z,7.60
2022-07-26T01:21:33.991Z,6.60
2022-07-26T01:24:00.667Z,7.80
2022-07-26T01:26:27.282Z,8.93
2022-07-26T01:28:53.929Z,7.75
2022-07-26T01:31:20.885Z,5.78
2022-07-26T01:33:47.866Z,10.27
2022-07-26T01:36:14.476Z,7.82
2022-07-26T01:38:41.620Z,7.65
2022-07-26T01:41:08.659Z,8.40
2022-07-26T01:43:36.106Z,11.45
2022-07-26T01:46:03.489Z,5.55
2022-07-26T01:48:30.916Z,10.27
2022-07-26T01:50:57.734Z,9.25
2022-07-26T01:53:24.420Z,8.52
2022-07-26T01:55:51.097Z,8.80
2022-07-26T01:58:17.965Z,9.15
2022-07-26T02:00:44.777Z,8.48
2022-07-26T02:03:11.550Z,12.27
2022-07-26T02:05:38.287Z,6.25
2022-07-26T02:08:05.054Z,10.40
2022-07-26T02:10:50.889Z,7.30
2022-07-26T02:13:17.723Z,10.38
2022-07-26T02:15:44.458Z,5.32
2022-07-26T02:18:11.185Z,5.57
2022-07-26T02:20:37.782Z,4.63
2022-07-26T02:23:04.831Z,7.05
2022-07-26T02:25:31.783Z,8.77
2022-07-26T02:27:58.767Z,7.28
2022-07-26T02:30:25.821Z,7.18
2022-07-26T02:32:52.424Z,5.15
2022-07-26T02:35:19.250Z,8.18
2022-07-26T02:37:45.905Z,5.68
2022-07-26T02:40:17.059Z,7.45
2022-07-26T02:42:45.858Z,8.07
2022-07-26T02:45:12.526Z,6.95
2022-07-26T02:47:47.135Z,4.43
2022-07-26T02:50:16.535Z,7.10
2022-07-26T02:52:43.149Z,8.30
2022-07-26T02:55:10.048Z,11.68
2022-07-26T02:57:46.563Z,12.25
2022-07-26T03:00:15.768Z,8.98
2022-07-26T03:02:42.584Z,11.73
2022-07-26T03:05:09.971Z,12.52
2022-07-26T03:07:36.737Z,11.80
2022-07-26T03:10:04.656Z,9.25
2022-07-26T03:12:31.751Z,12.80
2022-07-26T03:14:58.368Z,9.38
2022-07-26T03:17:25.070Z,10.20
2022-07-26T03:19:51.770Z,7.90
2022-07-26T03:22:18.558Z,8.02
2022-07-26T03:24:45.120Z,8.48
2022-07-26T03:27:11.982Z,7.18
2022-07-26T03:29:38.602Z,7.22
2022-07-26T03:32:05.607Z,9.98
2022-07-26T03:34:32.467Z,17.45
2022-07-26T03:36:59.091Z,13.65
2022-07-26T03:39:25.697Z,17.75
2022-07-26T03:41:52.324Z,10.10
2022-07-26T03:44:19.036Z,8.07
2022-07-26T03:46:45.812Z,7.70
2022-07-26T03:49:16.637Z,14.85
2022-07-26T03:51:44.021Z,9.02
2022-07-26T03:54:11.325Z,6.63
2022-07-26T03:56:38.320Z,7.35
2022-07-26T03:59:06.695Z,6.70
2022-07-26T04:01:35.234Z,8.25
2022-07-26T04:04:02.653Z,7.18
2022-07-26T04:06:30.301Z,9.00
2022-07-26T04:08:57.155Z,8.98
2022-07-26T04:11:26.412Z,11.20
2022-07-26T04:13:55.017Z,13.55
2022-07-26T04:16:21.622Z,15.15
2022-07-26T04:18:48.253Z,20.90
2022-07-26T04:21:14.955Z,14.05
2022-07-26T04:23:41.551Z,15.85
2022-07-26T04:26:08.197Z,13.13
2022-07-26T04:28:34.868Z,10.13
2022-07-26T04:31:01.853Z,15.35
2022-07-26T04:33:28.627Z,9.30
2022-07-26T04:35:55.242Z,9.27
2022-07-26T04:38:21.913Z,12.57
2022-07-26T04:40:50.042Z,7.38
2022-07-26T04:43:16.637Z,10.27
2022-07-26T04:45:46.965Z,12.63
2022-07-26T04:48:14.437Z,6.93
2022-07-26T04:50:41.361Z,8.38
2022-07-26T04:53:08.962Z,8.70
2022-07-26T04:55:35.529Z,8.20
2022-07-26T04:58:02.121Z,10.60
2022-07-26T05:00:28.695Z,9.10
2022-07-26T05:02:57.953Z,8.15
2022-07-26T05:05:26.975Z,7.43
2022-07-26T05:07:56.278Z,11.15
2022-07-26T05:10:29.368Z,8.75
2022-07-26T05:12:55.970Z,9.20
2022-07-26T05:15:22.697Z,12.65
2022-07-26T05:17:49.333Z,6.72
2022-07-26T05:20:16.871Z,8.32
2022-07-26T05:22:44.501Z,4.63
2022-07-26T05:25:11.246Z,7.45
2022-07-26T05:27:39.163Z,8.05
2022-07-26T05:30:06.459Z,8.30
2022-07-26T05:32:33.097Z,10.75
2022-07-26T05:34:59.787Z,6.20
2022-07-26T05:37:26.425Z,5.05
2022-07-26T05:39:53.071Z,5.18
2022-07-26T05:42:19.694Z,4.97
2022-07-26T05:44:46.380Z,9.07
2022-07-26T05:47:13.023Z,6.85
2022-07-26T05:49:40.639Z,3.55
2022-07-26T05:52:08.353Z,6.82
2022-07-26T05:54:35.451Z,6.50
2022-07-26T05:57:02.284Z,5.05
2022-07-26T05:59:29.122Z,6.22
2022-07-26T06:01:58.685Z,4.43
2022-07-26T06:04:26.635Z,5.00
2022-07-26T06:06:55.136Z,4.60
2022-07-26T06:09:24.288Z,4.90
2022-07-26T06:11:51.342Z,3.63
2022-07-26T06:14:18.498Z,7.25
2022-07-26T06:16:46.431Z,5.55
2022-07-26T06:19:13.408Z,6.22
2022-07-26T06:21:40.079Z,6.28
2022-07-26T06:24:07.259Z,5.50
2022-07-26T06:26:34.023Z,7.45
2022-07-26T06:29:00.592Z,5.30
2022-07-26T06:31:27.283Z,4.25
2022-07-26T06:33:53.963Z,3.38
2022-07-26T06:36:20.563Z,3.08
2022-07-26T06:38:47.216Z,4.07
2022-07-26T06:41:15.700Z,4.80
2022-07-26T06:43:42.312Z,2.70
2022-07-26T06:46:08.977Z,4.78
2022-07-26T06:48:36.006Z,6.25
2022-07-26T06:51:02.691Z,5.07
2022-07-26T06:53:29.251Z,3.60
2022-07-26T06:55:55.824Z,2.80
2022-07-26T06:58:22.492Z,5.50
2022-07-26T07:00:49.115Z,4.47
2022-07-26T07:03:15.746Z,6.47
2022-07-26T07:05:45.320Z,5.43
2022-07-26T07:08:16.026Z,5.97
2022-07-26T07:10:44.128Z,4.75
2022-07-26T07:13:11.136Z,4.60
2022-07-26T07:15:37.958Z,3.65
2022-07-26T07:18:04.805Z,2.63
2022-07-26T07:20:31.467Z,3.78
2022-07-26T07:22:58.097Z,2.92
2022-07-26T07:25:30.667Z,4.00
2022-07-26T07:27:57.979Z,8.48
2022-07-26T07:30:24.642Z,4.20
2022-07-26T07:32:55.767Z,5.60
2022-07-26T07:35:23.245Z,3.83
2022-07-26T07:37:52.837Z,4.35
2022-07-26T07:40:20.965Z,2.95
2022-07-26T07:42:47.578Z,5.97
2022-07-26T07:45:14.185Z,3.78
2022-07-26T07:47:40.794Z,2.17
2022-07-26T07:50:08.074Z,5.43
2022-07-26T07:52:34.734Z,4.18
2022-07-26T07:55:36.884Z,6.70
2022-07-26T07:57:48.006Z,2.22
2022-07-26T08:00:16.907Z,3.20
2022-07-26T08:02:44.950Z,3.50
2022-07-26T08:05:14.562Z,2.35
2022-07-26T08:07:42.448Z,4.03
2022-07-26T08:10:09.576Z,4.10
2022-07-26T08:12:36.393Z,5.88
2022-07-26T08:15:07.537Z,3.35
2022-07-26T08:17:35.564Z,3.60
2022-07-26T08:20:08.657Z,3.80
2022-07-26T08:22:39.621Z,1.75
2022-07-26T08:25:07.363Z,5.18
2022-07-26T08:27:40.618Z,2.15
2022-07-26T08:30:08.655Z,3.70
2022-07-26T08:32:35.854Z,2.83
2022-07-26T08:35:17.960Z,6.55
2022-07-26T08:37:46.334Z,1.90
2022-07-26T08:40:13.149Z,2.15
2022-07-26T08:42:40.133Z,2.03
2022-07-26T08:45:07.503Z,8.73
2022-07-26T08:47:37.579Z,2.65
2022-07-26T08:50:05.775Z,2.33
2022-07-26T08:52:32.444Z,4.85
2022-07-26T08:54:58.988Z,3.80
2022-07-26T08:57:25.681Z,4.00
2022-07-26T09:00:30.182Z,2.10
2022-07-26T09:02:58.726Z,2.92
2022-07-26T09:05:33.881Z,4.22
2022-07-26T09:08:02.037Z,3.83
2022-07-26T09:10:38.882Z,2.50
2022-07-26T09:13:05.912Z,3.00
2022-07-26T09:15:32.490Z,1.98
2022-07-26T09:17:59.233Z,1.90
2022-07-26T09:20:28.577Z,2.53
2022-07-26T09:23:13.422Z,2.08
2022-07-26T09:25:42.881Z,1.42
2022-07-26T09:28:30.099Z,1.52
2022-07-26T09:31:03.382Z,2.55
2022-07-26T09:33:46.417Z,2.50
2022-07-26T09:36:13.241Z,2.65
2022-07-26T09:38:51.634Z,2.05
2022-07-26T09:41:26.918Z,3.13
2022-07-26T09:43:55.685Z,1.75
2022-07-26T09:46:23.899Z,1.85
2022-07-26T09:51:42.197Z,2.05
2022-07-26T09:54:10.652Z,4.43
2022-07-26T09:56:46.402Z,3.38
2022-07-26T09:59:17.956Z,2.85
2022-07-26T10:01:45.367Z,3.22
2022-07-26T10:04:13.624Z,1.40
2022-07-26T10:06:41.151Z,1.92
2022-07-26T10:09:08.683Z,1.90
2022-07-26T10:12:00.269Z,1.75
2022-07-26T10:14:37.297Z,2.58
2022-07-26T10:17:30.854Z,3.60
2022-07-26T10:20:03.672Z,2.28
2022-07-26T10:22:41.560Z,2.30
2022-07-26T10:25:45.391Z,2.83
2022-07-26T10:28:24.054Z,2.17
2022-07-26T10:30:50.790Z,2.17
2022-07-26T10:33:18.622Z,2.88
2022-07-26T10:35:45.244Z,4.60
2022-07-26T10:38:26.725Z,3.83
2022-07-26T10:41:06.257Z,2.15
2022-07-26T10:43:42.453Z,2.30
2022-07-26T10:46:18.252Z,3.90
2022-07-26T10:49:05.279Z,2.95
2022-07-26T10:51:34.142Z,1.92
2022-07-26T10:54:09.658Z,2.00
2022-07-26T10:56:36.563Z,2.35
2022-07-26T10:59:04.524Z,3.20
2022-07-26T11:01:39.516Z,2.35
2022-07-26T11:04:07.825Z,1.58
2022-07-26T11:06:34.510Z,1.10
2022-07-26T11:09:10.318Z,1.92
2022-07-26T11:11:36.869Z,1.30
2022-07-26T11:14:05.225Z,1.83
2022-07-26T11:16:37.711Z,1.90
2022-07-26T11:19:21.813Z,1.40
2022-07-26T11:21:59.457Z,1.70
2022-07-26T11:24:30.633Z,2.25
2022-07-26T11:27:03.679Z,1.40
2022-07-26T11:29:40.387Z,2.03
2022-07-26T11:32:18.637Z,1.73
2022-07-26T11:34:46.169Z,2.13
2022-07-26T11:37:13.117Z,1.85
2022-07-26T11:39:39.848Z,2.00
2022-07-26T11:42:12.144Z,2.17
2022-07-26T11:44:43.504Z,1.80
2022-07-26T11:47:15.218Z,2.13
2022-07-26T11:49:59.737Z,1.80
2022-07-26T11:52:31.305Z,2.35
2022-07-26T11:54:58.074Z,2.55
2022-07-26T11:57:29.411Z,3.13
2022-07-26T11:59:56.041Z,2.97
2022-07-26T12:02:22.811Z,2.20
2022-07-26T12:04:50.000Z,2.17
2022-07-26T12:07:18.605Z,2.28
2022-07-26T12:09:52.928Z,2.30
2022-07-26T12:12:21.848Z,3.75
2022-07-26T12:15:06.205Z,3.22
2022-07-26T12:17:35.037Z,2.30
2022-07-26T12:20:17.972Z,2.85
2022-07-26T12:23:00.639Z,2.38
2022-07-26T12:25:28.949Z,2.17
2022-07-26T12:27:55.519Z,2.65
2022-07-26T12:30:22.628Z,3.72
2022-07-26T12:32:51.631Z,3.75
2022-07-26T12:35:29.520Z,3.80
2022-07-26T12:37:57.191Z,4.32
2022-07-26T12:40:25.837Z,2.95
2022-07-26T12:43:02.834Z,2.55
2022-07-26T12:45:34.177Z,2.80
2022-07-26T12:48:02.793Z,2.78
2022-07-26T12:50:31.541Z,3.45
2022-07-26T12:53:16.387Z,3.90
2022-07-26T12:55:43.116Z,5.20
2022-07-26T12:58:10.081Z,2.40
2022-07-26T13:00:36.637Z,3.55
2022-07-26T13:03:03.364Z,4.57
2022-07-26T13:05:31.533Z,2.70
2022-07-26T13:07:58.190Z,2.92
2022-07-26T13:10:34.028Z,4.95
2022-07-26T13:13:01.518Z,4.40
2022-07-26T13:15:36.349Z,2.80
2022-07-26T13:18:06.095Z,3.95
2022-07-26T13:20:32.842Z,6.88
2022-07-26T13:22:59.485Z,2.97
2022-07-26T13:25:28.948Z,3.20
2022-07-26T13:28:05.182Z,3.05
2022-07-26T13:30:32.001Z,3.53
2022-07-26T13:32:58.712Z,3.20
2022-07-26T13:35:25.264Z,3.53
2022-07-26T13:37:51.873Z,3.35
2022-07-26T13:40:18.677Z,4.90
2022-07-26T13:42:45.293Z,6.05
2022-07-26T13:45:12.003Z,4.70
2022-07-26T13:47:38.577Z,4.68
2022-07-26T13:50:05.785Z,3.63
2022-07-26T13:52:34.406Z,5.35
2022-07-26T13:55:00.960Z,4.95
2022-07-26T13:57:49.512Z,7.53
2022-07-26T14:00:14.749Z,5.82
2022-07-26T14:02:41.456Z,5.00
2022-07-26T14:05:09.045Z,5.25
2022-07-26T14:07:35.663Z,5.30
2022-07-26T14:10:02.257Z,3.35
2022-07-26T14:12:28.835Z,5.03
2022-07-26T14:14:55.440Z,4.22
2022-07-26T14:17:22.092Z,6.82
2022-07-26T14:19:48.740Z,5.50
2022-07-26T14:22:15.581Z,6.72
2022-07-26T14:24:42.286Z,4.95
2022-07-26T14:27:08.876Z,5.32
2022-07-26T14:29:35.421Z,4.70
2022-07-26T14:32:02.676Z,4.80
2022-07-26T14:34:29.379Z,3.75
2022-07-26T14:36:56.033Z,4.35
2022-07-26T14:39:22.590Z,9.45
2022-07-26T14:41:49.246Z,6.65
2022-07-26T14:44:15.831Z,4.93
2022-07-26T14:46:43.969Z,5.85
2022-07-26T14:49:10.841Z,5.25
2022-07-26T14:51:37.556Z,3.72
2022-07-26T14:54:04.797Z,9.80
2022-07-26T14:56:31.538Z,4.07
2022-07-26T14:58:58.088Z,5.55
2022-07-26T15:01:24.747Z,5.47
2022-07-26T15:03:54.795Z,4.18
2022-07-26T15:06:21.882Z,5.80
2022-07-26T15:08:48.501Z,3.72
2022-07-26T15:11:15.295Z,3.50
2022-07-26T15:13:42.359Z,2.95
2022-07-26T15:16:09.265Z,3.78
2022-07-26T15:18:36.045Z,6.13
2022-07-26T15:21:03.112Z,5.88
2022-07-26T15:23:29.757Z,3.13
2022-07-26T15:25:56.358Z,4.93
2022-07-26T15:28:23.010Z,4.93
2022-07-26T15:30:50.103Z,4.55
2022-07-26T15:33:17.280Z,4.10
2022-07-26T15:35:44.121Z,3.47
2022-07-26T15:38:10.718Z,2.72
2022-07-26T15:40:38.858Z,9.93
2022-07-26T15:43:05.554Z,4.55
2022-07-26T15:45:33.776Z,7.75
2022-07-26T15:48:13.406Z,5.57
2022-07-26T15:50:43.648Z,5.53
2022-07-26T15:53:10.654Z,4.00
2022-07-26T15:55:37.303Z,6.15
2022-07-26T15:58:03.871Z,2.70
2022-07-26T16:00:30.660Z,4.28
2022-07-26T16:02:57.447Z,9.93
2022-07-26T16:05:24.253Z,41.40
2022-07-26T16:07:50.943Z,29.92
2022-07-26T16:10:17.743Z,3.25
2022-07-26T16:12:44.518Z,4.95
2022-07-26T16:15:11.898Z,5.32
2022-07-26T16:17:38.702Z,5.05
2022-07-26T16:20:06.443Z,3.63
2022-07-26T16:22:33.226Z,4.65
2022-07-26T16:24:59.883Z,4.97
2022-07-26T16:27:26.498Z,2.63
2022-07-26T16:29:53.448Z,3.85
2022-07-26T16:32:21.519Z,3.40
2022-07-26T16:34:48.419Z,3.80
2022-07-26T16:37:15.069Z,7.45
2022-07-26T16:39:41.658Z,4.25
2022-07-26T16:42:08.294Z,3.88
2022-07-26T16:44:36.453Z,8.25
2022-07-26T16:47:04.000Z,3.55
2022-07-26T16:49:30.839Z,4.78
2022-07-26T16:51:57.898Z,4.80
2022-07-26T16:54:25.531Z,2.63
2022-07-26T16:56:52.112Z,4.75
2022-07-26T16:59:18.988Z,4.05
2022-07-26T17:01:45.719Z,4.47
2022-07-26T17:04:12.388Z,4.43
2022-07-26T17:06:39.039Z,3.85
2022-07-26T17:09:05.667Z,3.60
2022-07-26T17:11:32.287Z,3.63
2022-07-26T17:13:59.627Z,6.18
2022-07-26T17:16:26.585Z,3.42
2022-07-26T17:18:54.549Z,3.22
2022-07-26T17:21:21.696Z,3.45
2022-07-26T17:23:48.948Z,3.30
2022-07-26T17:26:16.600Z,3.70
2022-07-26T17:28:43.340Z,6.03
2022-07-26T17:31:10.240Z,4.20
2022-07-26T17:33:36.929Z,5.15
2022-07-26T17:36:22.733Z,3.83
2022-07-26T17:38:49.735Z,3.05
2022-07-26T17:41:18.523Z,4.30
2022-07-26T17:43:47.437Z,3.63
2022-07-26T17:46:14.213Z,4.53
2022-07-26T17:48:44.074Z,3.45
2022-07-26T17:51:10.687Z,2.60
2022-07-26T17:53:37.272Z,3.45
2022-07-26T17:56:07.828Z,2.63
2022-07-26T17:58:34.514Z,2.78
2022-07-26T18:01:01.120Z,2.72
2022-07-26T18:03:27.741Z,2.63
2022-07-26T18:05:54.706Z,4.15
2022-07-26T18:08:27.135Z,3.58
2022-07-26T18:10:55.462Z,5.05
2022-07-26T18:13:22.366Z,3.13
2022-07-26T18:15:50.052Z,6.63
2022-07-26T18:18:17.727Z,5.00
2022-07-26T18:20:44.518Z,3.05
2022-07-26T18:23:11.475Z,4.50
2022-07-26T18:25:38.307Z,3.03
2022-07-26T18:28:07.221Z,2.95
2022-07-26T18:30:34.307Z,5.32
2022-07-26T18:33:01.358Z,4.82
2022-07-26T18:35:28.616Z,3.33
2022-07-26T18:37:55.434Z,5.15
2022-07-26T18:40:23.831Z,14.23
2022-07-26T18:42:50.534Z,3.17
2022-07-26T18:45:17.296Z,4.05
2022-07-26T18:47:44.183Z,3.60
2022-07-26T18:50:17.079Z,4.40
2022-07-26T18:52:44.135Z,4.80
2022-07-26T18:55:12.755Z,3.25
2022-07-26T18:57:43.687Z,4.32
2022-07-26T19:00:14.509Z,2.22
2022-07-26T19:02:42.213Z,3.00
2022-07-26T19:05:09.544Z,3.63
2022-07-26T19:07:37.749Z,9.65
2022-07-26T19:10:06.511Z,2.55
2022-07-26T19:12:33.258Z,2.20
2022-07-26T19:15:00.195Z,3.30
2022-07-26T19:17:28.285Z,3.60
2022-07-26T19:19:57.410Z,4.22
2022-07-26T19:22:25.434Z,2.45
2022-07-26T19:24:52.462Z,2.92
2022-07-26T19:27:19.229Z,2.90
2022-07-26T19:29:45.950Z,3.00
2022-07-26T19:32:12.574Z,5.00
2022-07-26T19:34:39.148Z,3.17
2022-07-26T19:37:06.094Z,3.90
2022-07-26T19:39:32.677Z,4.00
2022-07-26T19:41:59.421Z,3.22
2022-07-26T19:44:26.025Z,2.50
2022-07-26T19:46:57.248Z,3.33
2022-07-26T19:49:24.534Z,4.57
2022-07-26T19:51:51.218Z,2.08
2022-07-26T19:54:17.853Z,4.32
2022-07-26T19:56:44.502Z,2.20
2022-07-26T19:59:11.554Z,2.10
2022-07-26T20:01:38.574Z,2.05
2022-07-26T20:04:05.431Z,1.83
2022-07-26T20:06:32.127Z,1.92
2022-07-26T20:08:58.762Z,1.42
2022-07-26T20:11:25.783Z,1.40
2022-07-26T20:13:52.381Z,1.30
2022-07-26T20:16:19.077Z,1.52
2022-07-26T20:18:45.649Z,0.80
2022-07-26T20:21:12.215Z,1.30
2022-07-26T20:23:38.864Z,2.10
2022-07-26T20:26:05.533Z,1.48
2022-07-26T20:28:32.482Z,2.35
2022-07-26T20:30:59.191Z,1.63
2022-07-26T20:33:25.789Z,0.80
2022-07-26T20:35:55.082Z,1.85
2022-07-26T20:38:23.612Z,3.75
2022-07-26T20:40:50.251Z,0.60
2022-07-26T20:43:17.433Z,3.05
2022-07-26T20:45:44.633Z,1.45
2022-07-26T20:48:14.780Z,1.38
2022-07-26T20:50:41.349Z,1.77
2022-07-26T20:53:07.926Z,2.38
2022-07-26T20:55:34.816Z,0.70
2022-07-26T20:58:01.505Z,1.20
2022-07-26T21:00:28.454Z,2.65
2022-07-26T21:02:55.192Z,1.35
2022-07-26T21:05:21.846Z,0.73
2022-07-26T21:07:58.561Z,1.10
2022-07-26T21:10:26.736Z,4.80
2022-07-26T21:12:54.803Z,1.05
2022-07-26T21:15:21.557Z,3.55
2022-07-26T21:17:48.119Z,3.05
2022-07-26T21:20:14.874Z,0.70
2022-07-26T21:22:41.486Z,0.73
2022-07-26T21:25:08.727Z,2.20
2022-07-26T21:27:35.399Z,0.95
2022-07-26T21:30:02.132Z,1.35
2022-07-26T21:32:31.668Z,2.22
2022-07-26T21:34:59.489Z,0.80
2022-07-26T21:37:26.433Z,0.65
2022-07-26T21:39:53.078Z,0.70
2022-07-26T21:42:19.735Z,2.08
2022-07-26T21:44:46.367Z,0.50
2022-07-26T21:47:12.931Z,1.90
2022-07-26T21:49:39.567Z,2.95
2022-07-26T21:52:06.149Z,0.50
2022-07-26T21:54:32.832Z,0.57
2022-07-26T21:56:59.472Z,0.50
2022-07-26T21:59:29.699Z,0.88
2022-07-26T22:01:56.422Z,0.63
2022-07-26T22:04:24.265Z,2.70
2022-07-26T22:06:50.916Z,0.75
2022-07-26T22:09:17.564Z,0.63
2022-07-26T22:11:44.183Z,0.63
2022-07-26T22:14:10.905Z,4.30
2022-07-26T22:16:37.525Z,3.42
2022-07-26T22:19:05.659Z,1.00
2022-07-26T22:21:32.292Z,3.42
2022-07-26T22:23:58.880Z,2.10
2022-07-26T22:26:31.143Z,1.88
2022-07-26T22:28:58.873Z,1.73
2022-07-26T22:31:25.615Z,3.72
2022-07-26T22:33:52.422Z,1.17
2022-07-26T22:36:19.254Z,0.70
2022-07-26T22:38:46.576Z,1.45
2022-07-26T22:41:13.277Z,1.48
2022-07-26T22:43:39.915Z,0.88
2022-07-26T22:46:06.563Z,2.55
2022-07-26T22:48:37.877Z,0.75
2022-07-26T22:51:05.135Z,1.73
2022-07-26T22:53:31.727Z,1.38
2022-07-26T22:56:02.205Z,1.70
2022-07-26T22:58:28.823Z,1.08
2022-07-26T23:00:55.516Z,1.80
2022-07-26T23:03:22.233Z,0.95
2022-07-26T23:05:52.112Z,2.20
2022-07-26T23:11:06.669Z,0.80
2022-07-26T23:13:33.437Z,1.55
2022-07-26T23:16:01.468Z,1.38
2022-07-26T23:18:29.455Z,1.33
2022-07-26T23:20:56.127Z,3.15
2022-07-26T23:23:23.166Z,2.63
2022-07-26T23:25:52.702Z,1.38
2022-07-26T23:28:36.209Z,2.35
2022-07-26T23:33:52.440Z,3.13
2022-07-26T23:36:17.824Z,1.00
2022-07-26T23:38:44.513Z,0.88
2022-07-26T23:41:11.111Z,1.33
2022-07-26T23:43:37.806Z,1.38
2022-07-26T23:46:04.435Z,2.13
2022-07-26T23:48:31.176Z,1.42
2022-07-26T23:50:57.826Z,2.97
2022-07-26T23:53:26.585Z,4.25
2022-07-26T23:55:54.165Z,2.10
2022-07-26T23:58:20.966Z,1.38
